sensor_id;sensor_type;location;lat;lon;timestamp;P1;durP1;ratioP1;P2;durP2;ratioP2
11269;SDS011;5692;48.956;9.200;2023-05-23T00:00:53;188.60;;;179.60;;
11269;SDS011;5692;48.956;9.200;2023-05-23T00:03:19;190.90;;;181.77;;
11269;SDS011;5692;48.956;9.200;2023-05-23T00:05:47;183.05;;;174.27;;
11269;SDS011;5692;48.956;9.200;2023-05-23T00:08:13;187.38;;;178.40;;
11269;SDS011;5692;48.956;9.200;2023-05-23T00:10:40;184.45;;;175.60;;
11269;SDS011;5692;48.956;9.200;2023-05-23T00:13:06;184.70;;;175.87;;
11269;SDS011;5692;48.956;9.200;2023-05-23T00:15:36;185.07;;;176.23;;
11269;SDS011;5692;48.956;9.200;2023-05-23T00:18:03;184.60;;;175.75;;
11269;SDS011;5692;48.956;9.200;2023-05-23T00:20:42;184.20;;;175.38;;
11269;SDS011;5692;48.956;9.200;2023-05-23T00:23:08;185.10;;;176.25;;
11269;SDS011;5692;48.956;9.200;2023-05-23T00:25:35;181.00;;;172.32;;
11269;SDS011;5692;48.956;9.200;2023-05-23T00:28:01;182.77;;;174.02;;
11269;SDS011;5692;48.956;9.200;2023-05-23T00:30:31;185.60;;;176.70;;
11269;SDS011;5692;48.956;9.200;2023-05-23T00:32:57;189.35;;;180.30;;
11269;SDS011;5692;48.956;9.200;2023-05-23T00:35:24;179.68;;;171.07;;
11269;SDS011;5692;48.956;9.200;2023-05-23T00:37:50;198.48;;;188.98;;
11269;SDS011;5692;48.956;9.200;2023-05-23T00:40:17;197.80;;;188.35;;
11269;SDS011;5692;48.956;9.200;2023-05-23T00:42:43;187.95;;;178.95;;
11269;SDS011;5692;48.956;9.200;2023-05-23T00:45:11;175.48;;;167.07;;
11269;SDS011;5692;48.956;9.200;2023-05-23T00:47:40;174.27;;;165.93;;
11269;SDS011;5692;48.956;9.200;2023-05-23T00:50:07;186.02;;;177.13;;
11269;SDS011;5692;48.956;9.200;2023-05-23T00:52:35;183.07;;;174.27;;
11269;SDS011;5692;48.956;9.200;2023-05-23T00:55:01;193.30;;;184.02;;
11269;SDS011;5692;48.956;9.200;2023-05-23T00:57:27;191.15;;;182.00;;
11269;SDS011;5692;48.956;9.200;2023-05-23T00:59:54;195.60;;;186.23;;
11269;SDS011;5692;48.956;9.200;2023-05-23T01:02:20;193.38;;;184.10;;
11269;SDS011;5692;48.956;9.200;2023-05-23T01:04:48;189.10;;;180.05;;
11269;SDS011;5692;48.956;9.200;2023-05-23T01:07:18;190.90;;;181.77;;
11269;SDS011;5692;48.956;9.200;2023-05-23T01:09:44;189.75;;;180.65;;
11269;SDS011;5692;48.956;9.200;2023-05-23T01:17:38;186.32;;;177.40;;
11269;SDS011;5692;48.956;9.200;2023-05-23T01:20:18;182.77;;;174.02;;
11269;SDS011;5692;48.956;9.200;2023-05-23T01:22:48;183.75;;;174.95;;
11269;SDS011;5692;48.956;9.200;2023-05-23T01:28:04;188.90;;;179.85;;
11269;SDS011;5692;48.956;9.200;2023-05-23T01:30:31;175.80;;;167.38;;
11269;SDS011;5692;48.956;9.200;2023-05-23T01:32:59;186.75;;;177.82;;
11269;SDS011;5692;48.956;9.200;2023-05-23T01:35:26;184.93;;;176.02;;
11269;SDS011;5692;48.956;9.200;2023-05-23T01:37:55;193.60;;;184.30;;
11269;SDS011;5692;48.956;9.200;2023-05-23T01:40:22;178.50;;;169.95;;
11269;SDS011;5692;48.956;9.200;2023-05-23T01:42:48;182.30;;;173.60;;
11269;SDS011;5692;48.956;9.200;2023-05-23T01:45:17;202.07;;;192.40;;
11269;SDS011;5692;48.956;9.200;2023-05-23T01:47:44;190.57;;;181.45;;
11269;SDS011;5692;48.956;9.200;2023-05-23T01:50:14;206.73;;;196.82;;
11269;SDS011;5692;48.956;9.200;2023-05-23T01:52:40;199.35;;;189.80;;
11269;SDS011;5692;48.956;9.200;2023-05-23T01:55:07;187.48;;;178.48;;
11269;SDS011;5692;48.956;9.200;2023-05-23T01:57:34;197.75;;;188.30;;
11269;SDS011;5692;48.956;9.200;2023-05-23T02:00:00;203.75;;;194.00;;
11269;SDS011;5692;48.956;9.200;2023-05-23T02:02:26;193.13;;;183.90;;
11269;SDS011;5692;48.956;9.200;2023-05-23T02:04:53;188.48;;;179.45;;
11269;SDS011;5692;48.956;9.200;2023-05-23T02:07:22;207.40;;;197.48;;
11269;SDS011;5692;48.956;9.200;2023-05-23T02:09:48;184.15;;;175.32;;
11269;SDS011;5692;48.956;9.200;2023-05-23T02:12:14;182.50;;;173.77;;
11269;SDS011;5692;48.956;9.200;2023-05-23T02:14:40;175.93;;;167.52;;
11269;SDS011;5692;48.956;9.200;2023-05-23T02:17:06;188.05;;;179.05;;
11269;SDS011;5692;48.956;9.200;2023-05-23T02:19:35;178.30;;;169.75;;
11269;SDS011;5692;48.956;9.200;2023-05-23T02:22:04;175.25;;;166.85;;
11269;SDS011;5692;48.956;9.200;2023-05-23T02:24:30;178.88;;;170.32;;
11269;SDS011;5692;48.956;9.200;2023-05-23T02:26:56;179.97;;;171.37;;
11269;SDS011;5692;48.956;9.200;2023-05-23T02:29:22;183.30;;;174.50;;
11269;SDS011;5692;48.956;9.200;2023-05-23T02:31:48;195.45;;;186.10;;
11269;SDS011;5692;48.956;9.200;2023-05-23T02:34:16;184.55;;;175.73;;
11269;SDS011;5692;48.956;9.200;2023-05-23T02:36:42;192.57;;;183.38;;
11269;SDS011;5692;48.956;9.200;2023-05-23T02:39:08;189.07;;;180.02;;
11269;SDS011;5692;48.956;9.200;2023-05-23T02:41:34;195.82;;;186.45;;
11269;SDS011;5692;48.956;9.200;2023-05-23T02:44:01;186.95;;;178.00;;
11269;SDS011;5692;48.956;9.200;2023-05-23T02:46:27;190.68;;;181.57;;
11269;SDS011;5692;48.956;9.200;2023-05-23T02:48:53;193.80;;;184.52;;
11269;SDS011;5692;48.956;9.200;2023-05-23T02:51:19;181.65;;;172.95;;
11269;SDS011;5692;48.956;9.200;2023-05-23T02:53:45;186.65;;;177.70;;
11269;SDS011;5692;48.956;9.200;2023-05-23T02:56:11;192.13;;;182.93;;
11269;SDS011;5692;48.956;9.200;2023-05-23T02:58:37;194.40;;;185.07;;
11269;SDS011;5692;48.956;9.200;2023-05-23T03:01:04;193.50;;;184.25;;
11269;SDS011;5692;48.956;9.200;2023-05-23T03:03:30;191.20;;;182.02;;
11269;SDS011;5692;48.956;9.200;2023-05-23T03:05:56;193.23;;;183.98;;
11269;SDS011;5692;48.956;9.200;2023-05-23T03:08:23;212.48;;;202.30;;
11269;SDS011;5692;48.956;9.200;2023-05-23T03:10:49;194.40;;;185.07;;
11269;SDS011;5692;48.956;9.200;2023-05-23T03:13:15;186.57;;;177.68;;
11269;SDS011;5692;48.956;9.200;2023-05-23T03:15:41;194.13;;;184.82;;
11269;SDS011;5692;48.956;9.200;2023-05-23T03:18:07;192.93;;;183.68;;
11269;SDS011;5692;48.956;9.200;2023-05-23T03:20:33;198.63;;;189.13;;
11269;SDS011;5692;48.956;9.200;2023-05-23T03:22:59;200.68;;;191.07;;
11269;SDS011;5692;48.956;9.200;2023-05-23T03:25:25;190.20;;;181.10;;
11269;SDS011;5692;48.956;9.200;2023-05-23T03:27:51;200.50;;;190.90;;
11269;SDS011;5692;48.956;9.200;2023-05-23T03:30:17;194.48;;;185.18;;
11269;SDS011;5692;48.956;9.200;2023-05-23T03:32:43;188.05;;;179.05;;
11269;SDS011;5692;48.956;9.200;2023-05-23T03:35:10;198.40;;;188.93;;
11269;SDS011;5692;48.956;9.200;2023-05-23T03:37:36;182.03;;;173.33;;
11269;SDS011;5692;48.956;9.200;2023-05-23T03:40:02;197.00;;;187.60;;
11269;SDS011;5692;48.956;9.200;2023-05-23T03:42:29;189.40;;;180.35;;
11269;SDS011;5692;48.956;9.200;2023-05-23T03:44:58;196.63;;;187.23;;
11269;SDS011;5692;48.956;9.200;2023-05-23T03:47:24;192.43;;;183.23;;
11269;SDS011;5692;48.956;9.200;2023-05-23T03:49:50;184.23;;;175.43;;
11269;SDS011;5692;48.956;9.200;2023-05-23T03:52:16;181.18;;;172.48;;
11269;SDS011;5692;48.956;9.200;2023-05-23T03:54:42;192.32;;;183.13;;
11269;SDS011;5692;48.956;9.200;2023-05-23T03:57:08;190.13;;;181.03;;
11269;SDS011;5692;48.956;9.200;2023-05-23T03:59:34;191.35;;;182.18;;
11269;SDS011;5692;48.956;9.200;2023-05-23T04:02:03;198.50;;;189.00;;
11269;SDS011;5692;48.956;9.200;2023-05-23T04:04:29;192.10;;;182.90;;
11269;SDS011;5692;48.956;9.200;2023-05-23T04:06:56;180.63;;;171.98;;
11269;SDS011;5692;48.956;9.200;2023-05-23T04:09:24;190.38;;;181.27;;
11269;SDS011;5692;48.956;9.200;2023-05-23T04:11:50;182.18;;;173.48;;
11269;SDS011;5692;48.956;9.200;2023-05-23T04:14:16;180.07;;;171.45;;
11269;SDS011;5692;48.956;9.200;2023-05-23T04:16:46;188.15;;;179.15;;
11269;SDS011;5692;48.956;9.200;2023-05-23T04:19:12;192.55;;;183.35;;
11269;SDS011;5692;48.956;9.200;2023-05-23T04:21:38;201.75;;;192.10;;
11269;SDS011;5692;48.956;9.200;2023-05-23T04:24:04;192.00;;;182.80;;
11269;SDS011;5692;48.956;9.200;2023-05-23T04:26:30;185.77;;;176.88;;
11269;SDS011;5692;48.956;9.200;2023-05-23T04:28:57;200.55;;;190.95;;
11269;SDS011;5692;48.956;9.200;2023-05-23T04:31:23;211.00;;;200.90;;
11269;SDS011;5692;48.956;9.200;2023-05-23T04:33:49;202.25;;;192.55;;
11269;SDS011;5692;48.956;9.200;2023-05-23T04:36:18;199.00;;;189.50;;
11269;SDS011;5692;48.956;9.200;2023-05-23T04:38:44;189.13;;;180.07;;
11269;SDS011;5692;48.956;9.200;2023-05-23T04:41:10;189.85;;;180.80;;
11269;SDS011;5692;48.956;9.200;2023-05-23T04:43:36;191.68;;;182.48;;
11269;SDS011;5692;48.956;9.200;2023-05-23T04:46:09;175.75;;;167.32;;
11269;SDS011;5692;48.956;9.200;2023-05-23T04:48:35;181.23;;;172.52;;
11269;SDS011;5692;48.956;9.200;2023-05-23T04:51:02;184.10;;;175.30;;
11269;SDS011;5692;48.956;9.200;2023-05-23T04:53:32;191.23;;;182.07;;
11269;SDS011;5692;48.956;9.200;2023-05-23T04:55:58;195.98;;;186.57;;
11269;SDS011;5692;48.956;9.200;2023-05-23T04:58:24;191.73;;;182.52;;
11269;SDS011;5692;48.956;9.200;2023-05-23T05:00:51;184.90;;;176.05;;
11269;SDS011;5692;48.956;9.200;2023-05-23T05:03:17;177.23;;;168.73;;
11269;SDS011;5692;48.956;9.200;2023-05-23T05:05:43;178.93;;;170.33;;
11269;SDS011;5692;48.956;9.200;2023-05-23T05:08:09;181.45;;;172.75;;
11269;SDS011;5692;48.956;9.200;2023-05-23T05:10:35;181.48;;;172.77;;
11269;SDS011;5692;48.956;9.200;2023-05-23T05:13:01;184.93;;;176.07;;
11269;SDS011;5692;48.956;9.200;2023-05-23T05:15:27;181.57;;;172.88;;
11269;SDS011;5692;48.956;9.200;2023-05-23T05:17:53;176.77;;;168.30;;
11269;SDS011;5692;48.956;9.200;2023-05-23T05:20:21;184.13;;;175.30;;
11269;SDS011;5692;48.956;9.200;2023-05-23T05:22:53;174.27;;;165.93;;
11269;SDS011;5692;48.956;9.200;2023-05-23T05:25:22;165.75;;;157.82;;
11269;SDS011;5692;48.956;9.200;2023-05-23T05:27:48;170.95;;;162.77;;
11269;SDS011;5692;48.956;9.200;2023-05-23T05:30:15;176.48;;;168.02;;
11269;SDS011;5692;48.956;9.200;2023-05-23T05:32:41;194.98;;;185.65;;
11269;SDS011;5692;48.956;9.200;2023-05-23T05:35:10;180.95;;;172.25;;
11269;SDS011;5692;48.956;9.200;2023-05-23T05:37:40;188.35;;;179.35;;
11269;SDS011;5692;48.956;9.200;2023-05-23T05:40:06;184.02;;;175.23;;
11269;SDS011;5692;48.956;9.200;2023-05-23T05:42:35;174.63;;;166.25;;
11269;SDS011;5692;48.956;9.200;2023-05-23T05:45:02;177.10;;;168.63;;
11269;SDS011;5692;48.956;9.200;2023-05-23T05:47:28;184.43;;;175.63;;
11269;SDS011;5692;48.956;9.200;2023-05-23T05:49:56;192.95;;;183.73;;
11269;SDS011;5692;48.956;9.200;2023-05-23T05:52:23;185.80;;;176.90;;
11269;SDS011;5692;48.956;9.200;2023-05-23T05:54:48;186.80;;;177.90;;
11269;SDS011;5692;48.956;9.200;2023-05-23T05:57:14;194.23;;;184.93;;
11269;SDS011;5692;48.956;9.200;2023-05-23T05:59:40;181.65;;;172.95;;
11269;SDS011;5692;48.956;9.200;2023-05-23T06:02:06;181.63;;;172.93;;
11269;SDS011;5692;48.956;9.200;2023-05-23T06:04:33;193.35;;;184.10;;
11269;SDS011;5692;48.956;9.200;2023-05-23T06:06:59;205.25;;;195.40;;
11269;SDS011;5692;48.956;9.200;2023-05-23T06:09:25;201.95;;;192.25;;
11269;SDS011;5692;48.956;9.200;2023-05-23T06:11:51;183.13;;;174.37;;
11269;SDS011;5692;48.956;9.200;2023-05-23T06:14:17;187.17;;;178.17;;
11269;SDS011;5692;48.956;9.200;2023-05-23T06:16:43;196.95;;;187.52;;
11269;SDS011;5692;48.956;9.200;2023-05-23T06:19:09;205.80;;;195.95;;
11269;SDS011;5692;48.956;9.200;2023-05-23T06:21:35;200.38;;;190.77;;
11269;SDS011;5692;48.956;9.200;2023-05-23T06:24:01;203.30;;;193.57;;
11269;SDS011;5692;48.956;9.200;2023-05-23T06:26:27;196.40;;;187.00;;
11269;SDS011;5692;48.956;9.200;2023-05-23T06:28:53;190.47;;;181.37;;
11269;SDS011;5692;48.956;9.200;2023-05-23T06:31:19;200.10;;;190.50;;
11269;SDS011;5692;48.956;9.200;2023-05-23T06:33:45;206.18;;;196.27;;
11269;SDS011;5692;48.956;9.200;2023-05-23T06:36:11;202.80;;;193.10;;
11269;SDS011;5692;48.956;9.200;2023-05-23T06:38:37;200.97;;;191.33;;
11269;SDS011;5692;48.956;9.200;2023-05-23T06:41:03;195.30;;;185.95;;
11269;SDS011;5692;48.956;9.200;2023-05-23T06:43:31;199.65;;;190.07;;
11269;SDS011;5692;48.956;9.200;2023-05-23T06:45:57;203.35;;;193.63;;
11269;SDS011;5692;48.956;9.200;2023-05-23T06:48:22;186.60;;;177.70;;
11269;SDS011;5692;48.956;9.200;2023-05-23T06:50:51;192.70;;;183.48;;
11269;SDS011;5692;48.956;9.200;2023-05-23T06:53:17;191.00;;;181.87;;
11269;SDS011;5692;48.956;9.200;2023-05-23T06:55:43;182.57;;;173.83;;
11269;SDS011;5692;48.956;9.200;2023-05-23T06:58:11;198.83;;;189.33;;
11269;SDS011;5692;48.956;9.200;2023-05-23T07:00:37;200.77;;;191.18;;
11269;SDS011;5692;48.956;9.200;2023-05-23T07:03:03;189.43;;;180.37;;
11269;SDS011;5692;48.956;9.200;2023-05-23T07:05:32;202.52;;;192.85;;
11269;SDS011;5692;48.956;9.200;2023-05-23T07:07:58;200.50;;;190.90;;
11269;SDS011;5692;48.956;9.200;2023-05-23T07:10:24;193.82;;;184.52;;
11269;SDS011;5692;48.956;9.200;2023-05-23T07:12:50;192.85;;;183.65;;
11269;SDS011;5692;48.956;9.200;2023-05-23T07:15:16;191.98;;;182.77;;
11269;SDS011;5692;48.956;9.200;2023-05-23T07:17:42;198.15;;;188.65;;
11269;SDS011;5692;48.956;9.200;2023-05-23T07:20:08;198.30;;;188.80;;
11269;SDS011;5692;48.956;9.200;2023-05-23T07:22:35;194.18;;;184.88;;
11269;SDS011;5692;48.956;9.200;2023-05-23T07:25:01;209.73;;;199.68;;
11269;SDS011;5692;48.956;9.200;2023-05-23T07:27:27;193.13;;;183.88;;
11269;SDS011;5692;48.956;9.200;2023-05-23T07:29:53;191.45;;;182.27;;
11269;SDS011;5692;48.956;9.200;2023-05-23T07:32:21;190.32;;;181.23;;
11269;SDS011;5692;48.956;9.200;2023-05-23T07:34:47;192.67;;;183.47;;
11269;SDS011;5692;48.956;9.200;2023-05-23T07:37:13;198.45;;;188.95;;
11269;SDS011;5692;48.956;9.200;2023-05-23T07:39:40;203.50;;;193.80;;
11269;SDS011;5692;48.956;9.200;2023-05-23T07:42:09;202.95;;;193.25;;
11269;SDS011;5692;48.956;9.200;2023-05-23T07:44:35;185.10;;;176.20;;
11269;SDS011;5692;48.956;9.200;2023-05-23T07:47:02;200.55;;;190.95;;
11269;SDS011;5692;48.956;9.200;2023-05-23T07:49:31;185.55;;;176.65;;
11269;SDS011;5692;48.956;9.200;2023-05-23T07:51:59;198.60;;;189.10;;
11269;SDS011;5692;48.956;9.200;2023-05-23T07:54:25;194.40;;;185.10;;
11269;SDS011;5692;48.956;9.200;2023-05-23T07:56:52;198.00;;;188.52;;
11269;SDS011;5692;48.956;9.200;2023-05-23T07:59:18;206.32;;;196.43;;
11269;SDS011;5692;48.956;9.200;2023-05-23T08:01:44;210.32;;;200.27;;
11269;SDS011;5692;48.956;9.200;2023-05-23T08:04:10;213.45;;;203.25;;
11269;SDS011;5692;48.956;9.200;2023-05-23T08:06:36;195.10;;;185.80;;
11269;SDS011;5692;48.956;9.200;2023-05-23T08:09:02;190.15;;;181.05;;
11269;SDS011;5692;48.956;9.200;2023-05-23T08:11:30;194.75;;;185.43;;
11269;SDS011;5692;48.956;9.200;2023-05-23T08:13:56;207.33;;;197.40;;
11269;SDS011;5692;48.956;9.200;2023-05-23T08:16:23;201.90;;;192.25;;
11269;SDS011;5692;48.956;9.200;2023-05-23T08:18:51;187.95;;;178.95;;
11269;SDS011;5692;48.956;9.200;2023-05-23T08:21:17;179.83;;;171.20;;
11269;SDS011;5692;48.956;9.200;2023-05-23T08:23:43;182.05;;;173.35;;
11269;SDS011;5692;48.956;9.200;2023-05-23T08:26:09;184.10;;;175.30;;
11269;SDS011;5692;48.956;9.200;2023-05-23T08:28:35;192.27;;;183.07;;
11269;SDS011;5692;48.956;9.200;2023-05-23T08:31:01;198.60;;;189.10;;
11269;SDS011;5692;48.956;9.200;2023-05-23T08:33:27;187.95;;;178.95;;
11269;SDS011;5692;48.956;9.200;2023-05-23T08:35:53;189.07;;;180.00;;
11269;SDS011;5692;48.956;9.200;2023-05-23T08:38:19;193.70;;;184.45;;
11269;SDS011;5692;48.956;9.200;2023-05-23T08:40:49;212.77;;;202.60;;
11269;SDS011;5692;48.956;9.200;2023-05-23T08:43:19;208.65;;;198.68;;
11269;SDS011;5692;48.956;9.200;2023-05-23T08:45:47;206.23;;;196.35;;
11269;SDS011;5692;48.956;9.200;2023-05-23T08:48:15;194.40;;;185.10;;
11269;SDS011;5692;48.956;9.200;2023-05-23T08:50:44;195.95;;;186.55;;
11269;SDS011;5692;48.956;9.200;2023-05-23T08:53:12;203.23;;;193.50;;
11269;SDS011;5692;48.956;9.200;2023-05-23T08:55:44;198.20;;;188.70;;
11269;SDS011;5692;48.956;9.200;2023-05-23T08:58:15;195.57;;;186.23;;
11269;SDS011;5692;48.956;9.200;2023-05-23T09:00:41;195.10;;;185.77;;
11269;SDS011;5692;48.956;9.200;2023-05-23T09:03:10;195.77;;;186.40;;
11269;SDS011;5692;48.956;9.200;2023-05-23T09:05:39;197.02;;;187.60;;
11269;SDS011;5692;48.956;9.200;2023-05-23T09:08:06;199.52;;;189.98;;
11269;SDS011;5692;48.956;9.200;2023-05-23T09:10:33;198.48;;;188.98;;
11269;SDS011;5692;48.956;9.200;2023-05-23T09:12:59;209.88;;;199.85;;
11269;SDS011;5692;48.956;9.200;2023-05-23T09:15:25;201.77;;;192.10;;
11269;SDS011;5692;48.956;9.200;2023-05-23T09:17:53;195.80;;;186.43;;
11269;SDS011;5692;48.956;9.200;2023-05-23T09:20:25;206.75;;;196.85;;
11269;SDS011;5692;48.956;9.200;2023-05-23T09:22:53;208.77;;;198.77;;
11269;SDS011;5692;48.956;9.200;2023-05-23T09:25:19;199.23;;;189.70;;
11269;SDS011;5692;48.956;9.200;2023-05-23T09:27:50;198.55;;;189.05;;
11269;SDS011;5692;48.956;9.200;2023-05-23T09:30:18;181.07;;;172.38;;
11269;SDS011;5692;48.956;9.200;2023-05-23T09:32:56;187.75;;;178.75;;
11269;SDS011;5692;48.956;9.200;2023-05-23T09:35:23;183.43;;;174.63;;
11269;SDS011;5692;48.956;9.200;2023-05-23T09:37:49;183.95;;;175.15;;
11269;SDS011;5692;48.956;9.200;2023-05-23T09:40:20;196.82;;;187.40;;
11269;SDS011;5692;48.956;9.200;2023-05-23T09:42:46;197.75;;;188.30;;
11269;SDS011;5692;48.956;9.200;2023-05-23T09:45:13;198.82;;;189.32;;
11269;SDS011;5692;48.956;9.200;2023-05-23T09:47:49;182.88;;;174.13;;
11269;SDS011;5692;48.956;9.200;2023-05-23T09:50:15;193.60;;;184.30;;
11269;SDS011;5692;48.956;9.200;2023-05-23T09:52:42;193.05;;;183.80;;
11269;SDS011;5692;48.956;9.200;2023-05-23T09:55:08;197.20;;;187.77;;
11269;SDS011;5692;48.956;9.200;2023-05-23T09:57:34;197.55;;;188.07;;
11269;SDS011;5692;48.956;9.200;2023-05-23T10:00:03;185.32;;;176.45;;
11269;SDS011;5692;48.956;9.200;2023-05-23T10:05:11;189.68;;;180.60;;
11269;SDS011;5692;48.956;9.200;2023-05-23T10:07:39;198.35;;;188.85;;
11269;SDS011;5692;48.956;9.200;2023-05-23T10:10:07;203.75;;;194.00;;
11269;SDS011;5692;48.956;9.200;2023-05-23T10:12:46;203.20;;;193.48;;
11269;SDS011;5692;48.956;9.200;2023-05-23T10:15:13;206.18;;;196.30;;
11269;SDS011;5692;48.956;9.200;2023-05-23T10:20:16;191.77;;;182.57;;
11269;SDS011;5692;48.956;9.200;2023-05-23T10:22:43;204.13;;;194.35;;
11269;SDS011;5692;48.956;9.200;2023-05-23T10:25:09;208.82;;;198.82;;
11269;SDS011;5692;48.956;9.200;2023-05-23T10:27:36;203.38;;;193.68;;
11269;SDS011;5692;48.956;9.200;2023-05-23T10:30:02;215.18;;;204.88;;
11269;SDS011;5692;48.956;9.200;2023-05-23T10:32:29;197.98;;;188.50;;
11269;SDS011;5692;48.956;9.200;2023-05-23T10:35:00;208.55;;;198.57;;
11269;SDS011;5692;48.956;9.200;2023-05-23T10:47:59;211.45;;;201.35;;
11269;SDS011;5692;48.956;9.200;2023-05-23T10:50:29;223.00;;;212.30;;
11269;SDS011;5692;48.956;9.200;2023-05-23T10:53:01;214.02;;;203.77;;
11269;SDS011;5692;48.956;9.200;2023-05-23T10:55:30;213.65;;;203.45;;
11269;SDS011;5692;48.956;9.200;2023-05-23T10:58:14;219.88;;;209.38;;
11269;SDS011;5692;48.956;9.200;2023-05-23T11:00:54;200.57;;;190.98;;
11269;SDS011;5692;48.956;9.200;2023-05-23T11:04:06;227.98;;;217.07;;
11269;SDS011;5692;48.956;9.200;2023-05-23T11:06:09;214.25;;;204.00;;
11269;SDS011;5692;48.956;9.200;2023-05-23T11:08:59;212.80;;;202.60;;
11269;SDS011;5692;48.956;9.200;2023-05-23T11:11:45;219.18;;;208.68;;
11269;SDS011;5692;48.956;9.200;2023-05-23T11:14:12;210.60;;;200.50;;
11269;SDS011;5692;48.956;9.200;2023-05-23T11:16:39;206.27;;;196.43;;
11269;SDS011;5692;48.956;9.200;2023-05-23T11:21:44;213.45;;;203.25;;
11269;SDS011;5692;48.956;9.200;2023-05-23T11:24:13;204.43;;;194.65;;
11269;SDS011;5692;48.956;9.200;2023-05-23T11:26:40;197.93;;;188.43;;
11269;SDS011;5692;48.956;9.200;2023-05-23T11:29:16;199.75;;;190.18;;
11269;SDS011;5692;48.956;9.200;2023-05-23T11:31:42;211.98;;;201.85;;
11269;SDS011;5692;48.956;9.200;2023-05-23T11:34:08;202.00;;;192.30;;
11269;SDS011;5692;48.956;9.200;2023-05-23T11:36:34;218.00;;;207.55;;
11269;SDS011;5692;48.956;9.200;2023-05-23T11:39:01;206.43;;;196.55;;
11269;SDS011;5692;48.956;9.200;2023-05-23T11:41:27;194.30;;;185.00;;
11269;SDS011;5692;48.956;9.200;2023-05-23T11:43:53;195.90;;;186.50;;
11269;SDS011;5692;48.956;9.200;2023-05-23T11:46:19;205.50;;;195.70;;
11269;SDS011;5692;48.956;9.200;2023-05-23T11:48:46;209.27;;;199.27;;
11269;SDS011;5692;48.956;9.200;2023-05-23T11:51:13;199.30;;;189.77;;
11269;SDS011;5692;48.956;9.200;2023-05-23T11:53:39;192.13;;;182.93;;
11269;SDS011;5692;48.956;9.200;2023-05-23T11:56:05;222.52;;;211.88;;
11269;SDS011;5692;48.956;9.200;2023-05-23T11:58:34;211.70;;;201.57;;
11269;SDS011;5692;48.956;9.200;2023-05-23T12:01:11;206.77;;;196.87;;
11269;SDS011;5692;48.956;9.200;2023-05-23T12:03:48;206.80;;;196.90;;
11269;SDS011;5692;48.956;9.200;2023-05-23T12:06:15;207.93;;;197.95;;
11269;SDS011;5692;48.956;9.200;2023-05-23T12:08:43;222.85;;;212.20;;
11269;SDS011;5692;48.956;9.200;2023-05-23T12:11:09;222.82;;;212.13;;
11269;SDS011;5692;48.956;9.200;2023-05-23T12:13:36;230.98;;;219.93;;
11269;SDS011;5692;48.956;9.200;2023-05-23T12:16:02;229.38;;;218.40;;
11269;SDS011;5692;48.956;9.200;2023-05-23T12:18:29;210.82;;;200.73;;
11269;SDS011;5692;48.956;9.200;2023-05-23T12:20:59;214.77;;;204.48;;
11269;SDS011;5692;48.956;9.200;2023-05-23T12:23:28;199.43;;;189.88;;
11269;SDS011;5692;48.956;9.200;2023-05-23T12:25:55;209.43;;;199.40;;
11269;SDS011;5692;48.956;9.200;2023-05-23T12:28:36;219.87;;;209.37;;
11269;SDS011;5692;48.956;9.200;2023-05-23T12:31:16;204.57;;;194.77;;
11269;SDS011;5692;48.956;9.200;2023-05-23T12:33:42;200.13;;;190.53;;
11269;SDS011;5692;48.956;9.200;2023-05-23T12:36:10;201.23;;;191.60;;
11269;SDS011;5692;48.956;9.200;2023-05-23T12:38:36;208.93;;;198.93;;
11269;SDS011;5692;48.956;9.200;2023-05-23T12:41:10;208.10;;;198.15;;
11269;SDS011;5692;48.956;9.200;2023-05-23T12:43:39;213.20;;;203.00;;
11269;SDS011;5692;48.956;9.200;2023-05-23T12:46:05;206.35;;;196.45;;
11269;SDS011;5692;48.956;9.200;2023-05-23T12:48:32;208.05;;;198.05;;
11269;SDS011;5692;48.956;9.200;2023-05-23T12:50:58;206.95;;;197.05;;
11269;SDS011;5692;48.956;9.200;2023-05-23T12:53:25;200.88;;;191.27;;
11269;SDS011;5692;48.956;9.200;2023-05-23T12:55:51;201.57;;;191.93;;
11269;SDS011;5692;48.956;9.200;2023-05-23T12:58:17;196.83;;;187.43;;
11269;SDS011;5692;48.956;9.200;2023-05-23T13:00:43;195.43;;;186.07;;
11269;SDS011;5692;48.956;9.200;2023-05-23T13:03:09;204.57;;;194.77;;
11269;SDS011;5692;48.956;9.200;2023-05-23T13:05:37;205.63;;;195.80;;
11269;SDS011;5692;48.956;9.200;2023-05-23T13:08:05;205.27;;;195.45;;
11269;SDS011;5692;48.956;9.200;2023-05-23T13:10:31;194.20;;;184.90;;
11269;SDS011;5692;48.956;9.200;2023-05-23T13:12:57;196.45;;;187.05;;
11269;SDS011;5692;48.956;9.200;2023-05-23T13:15:23;188.73;;;179.70;;
11269;SDS011;5692;48.956;9.200;2023-05-23T13:17:49;200.30;;;190.70;;
11269;SDS011;5692;48.956;9.200;2023-05-23T13:20:16;197.25;;;187.82;;
11269;SDS011;5692;48.956;9.200;2023-05-23T13:22:42;200.52;;;190.93;;
11269;SDS011;5692;48.956;9.200;2023-05-23T13:25:08;201.80;;;192.10;;
11269;SDS011;5692;48.956;9.200;2023-05-23T13:27:34;207.55;;;197.60;;
11269;SDS011;5692;48.956;9.200;2023-05-23T13:30:00;194.10;;;184.80;;
11269;SDS011;5692;48.956;9.200;2023-05-23T13:32:26;203.45;;;193.70;;
11269;SDS011;5692;48.956;9.200;2023-05-23T13:34:56;191.65;;;182.48;;
11269;SDS011;5692;48.956;9.200;2023-05-23T13:37:22;194.30;;;185.00;;
11269;SDS011;5692;48.956;9.200;2023-05-23T13:39:48;189.02;;;179.98;;
11269;SDS011;5692;48.956;9.200;2023-05-23T13:42:14;198.13;;;188.65;;
11269;SDS011;5692;48.956;9.200;2023-05-23T13:44:40;206.80;;;196.90;;
11269;SDS011;5692;48.956;9.200;2023-05-23T13:47:12;210.23;;;200.18;;
11269;SDS011;5692;48.956;9.200;2023-05-23T13:49:39;196.90;;;187.50;;
11269;SDS011;5692;48.956;9.200;2023-05-23T13:52:05;199.40;;;189.85;;
11269;SDS011;5692;48.956;9.200;2023-05-23T13:54:31;191.95;;;182.75;;
11269;SDS011;5692;48.956;9.200;2023-05-23T13:56:58;206.60;;;196.70;;
11269;SDS011;5692;48.956;9.200;2023-05-23T13:59:27;214.88;;;204.60;;
11269;SDS011;5692;48.956;9.200;2023-05-23T14:01:55;199.35;;;189.80;;
11269;SDS011;5692;48.956;9.200;2023-05-23T14:04:21;200.35;;;190.75;;
11269;SDS011;5692;48.956;9.200;2023-05-23T14:06:48;205.93;;;196.07;;
11269;SDS011;5692;48.956;9.200;2023-05-23T14:09:14;210.27;;;200.20;;
11269;SDS011;5692;48.956;9.200;2023-05-23T14:11:40;225.57;;;214.77;;
11269;SDS011;5692;48.956;9.200;2023-05-23T14:14:09;203.45;;;193.73;;
11269;SDS011;5692;48.956;9.200;2023-05-23T14:16:38;211.70;;;201.57;;
11269;SDS011;5692;48.956;9.200;2023-05-23T14:19:04;202.50;;;192.80;;
11269;SDS011;5692;48.956;9.200;2023-05-23T14:21:30;229.20;;;218.23;;
11269;SDS011;5692;48.956;9.200;2023-05-23T14:23:56;215.90;;;205.57;;
11269;SDS011;5692;48.956;9.200;2023-05-23T14:26:22;202.87;;;193.17;;
11269;SDS011;5692;48.956;9.200;2023-05-23T14:28:48;220.17;;;209.63;;
11269;SDS011;5692;48.956;9.200;2023-05-23T14:31:14;206.20;;;196.33;;
11269;SDS011;5692;48.956;9.200;2023-05-23T14:33:43;226.57;;;215.73;;
11269;SDS011;5692;48.956;9.200;2023-05-23T14:36:09;200.07;;;190.47;;